Las Vegas, NV

12:43 PM PST on December 07, 2016 (GMT -0800)
| | Change Station

Elev -9999 ft 0.00 °N, 0.00 °E | Updated

Clear
Clear
53 °F
Feels Like 53 °F
N
6
Wind Variable Wind from ENE
Gusts mph

Today
High -- | Low -- °F
--% Chance of Precip.
Yesterday
High -- | Low -- °F
Precip. -- in
Pressure 30.15 in
Visibility 10.0 miles
Clouds Mostly Cloudy 25000 ft
Dew Point 6 °F
Humidity 15%
Rainfall --
Snow Depth Not available.
6:38 AM 4:26 PM
First Quarter, 55% visible
METAR KLAS 071956Z 06009KT 10SM BKN250 11/M14 A3016 RMK AO2 SLP210 T01111144
Pressure 30.15 in
Visibility 10.0 miles
Clouds Mostly Cloudy 25000 ft
Dew Point 6 °F
Humidity 15%
Rainfall --
Snow Depth Not available.
6:38 AM 4:26 PM
First Quarter, 55% visible
METAR KLAS 071956Z 06009KT 10SM BKN250 11/M14 A3016 RMK AO2 SLP210 T01111144

10-Day Weather Forecast

Almanac

Astronomy

Dec. 07, 2016 Rise Set
Actual Time
Civil Twilight
Nautical Twilight
Astronomical Twilight
Moon
Length of Visible Light
Length of Day
Tomorrow will be .
, % of the Moon is Illuminated

Today's Extremes

State Highs State Lows

Community

WunderPhotos

Upload Photos

1,956,170 photos uploaded!

WunderBlog® & News

Nearby

Air Quality

  Air Quality AQ Index Pollutant
Not available.

Snow Depth

Station Depth Elevation

Earthquake Activity

City Distance Mag. Time & Date
Minimum magnitude displayed is 2.5.

Coastal Water Temperatures

Place Temperature

Stations

Nearby Weather Stations

Station Location Temp. Windchill Dew Point Humidity Wind Precip. Elev Updated Type
                   

Watches & Warnings

There are currently no watches in effect.